Time;durP1;ratioP1;P1;durP2;ratioP2;P2;SDS_P1;SDS_P2;PMS_P1;PMS_P2;Temp;Humidity;BMP_temperature;BMP_pressure;BME280_temperature;BME280_humidity;BME280_pressure;Samples;Min_cycle;Max_cycle;Signal;HPM_P1;HPM_P2
2023/07/11 00:02:09;;;;;;;7.55;3.42;;;23.30;60.40;;;;;;5070089;28;20032;-64
2023/07/11 00:04:36;;;;;;;8.85;3.17;;;23.30;60.50;;;;;;5069060;28;20032;-64
2023/07/11 00:07:02;;;;;;;6.22;2.80;;;23.30;60.50;;;;;;5069801;28;20032;-64
2023/07/11 00:09:28;;;;;;;7.97;2.95;;;23.30;60.70;;;;;;5050496;28;20017;-64
2023/07/11 00:11:54;;;;;;;6.25;3.00;;;23.20;60.80;;;;;;5070857;28;20028;-64
2023/07/11 00:14:20;;;;;;;7.57;3.17;;;23.20;61.00;;;;;;5052997;28;21102;-64
2023/07/11 00:16:45;;;;;;;10.40;3.03;;;23.10;61.00;;;;;;5071032;28;20033;-64
2023/07/11 00:19:12;;;;;;;5.57;2.83;;;23.10;61.20;;;;;;5070227;28;20021;-64
2023/07/11 00:21:37;;;;;;;5.85;2.45;;;23.10;61.20;;;;;;5070310;28;20500;-64
2023/07/11 00:24:06;;;;;;;6.03;2.85;;;23.10;61.20;;;;;;5070605;28;20058;-64
2023/07/11 00:26:33;;;;;;;6.00;2.88;;;23.10;61.30;;;;;;5071247;28;20044;-64
2023/07/11 00:29:12;;;;;;;6.22;2.67;;;23.00;61.30;;;;;;5070704;28;20473;-64
2023/07/11 00:31:37;;;;;;;5.88;2.60;;;23.00;61.30;;;;;;5066103;28;20056;-64
2023/07/11 00:34:03;;;;;;;7.43;3.45;;;23.00;61.30;;;;;;5071316;28;20075;-64
2023/07/11 00:36:29;;;;;;;8.13;3.13;;;23.00;61.30;;;;;;5069781;28;20052;-64
2023/07/11 00:38:55;;;;;;;7.13;2.92;;;23.00;61.40;;;;;;5070477;28;20032;-64
2023/07/11 00:41:20;;;;;;;6.82;2.90;;;22.90;61.40;;;;;;5053447;28;20025;-64
2023/07/11 00:43:46;;;;;;;9.88;3.50;;;22.90;61.40;;;;;;5071540;28;20575;-64
2023/07/11 00:46:18;;;;;;;6.57;2.72;;;22.90;61.50;;;;;;5072281;28;20353;-64
2023/07/11 00:48:52;;;;;;;7.38;3.05;;;22.90;61.60;;;;;;5036288;28;20012;-64
2023/07/11 00:51:32;;;;;;;5.38;2.60;;;22.90;61.60;;;;;;5069274;28;20575;-64
2023/07/11 00:54:00;;;;;;;5.40;2.60;;;22.90;61.60;;;;;;5068713;28;20061;-64
2023/07/11 00:56:32;;;;;;;6.97;2.78;;;22.90;61.80;;;;;;5069325;28;20047;-64
2023/07/11 00:58:58;;;;;;;6.95;3.00;;;22.90;61.70;;;;;;5066976;28;20291;-64
2023/07/11 01:01:25;;;;;;;6.25;2.90;;;22.80;61.70;;;;;;5052733;28;20028;-64
2023/07/11 01:03:52;;;;;;;6.53;2.75;;;22.80;61.90;;;;;;5070156;28;20024;-64
2023/07/11 01:06:22;;;;;;;7.25;2.90;;;22.80;61.90;;;;;;5067334;28;20025;-64
2023/07/11 01:08:49;;;;;;;7.25;2.58;;;22.80;62.00;;;;;;5054554;28;20050;-64
2023/07/11 01:11:16;;;;;;;5.60;2.83;;;22.80;62.10;;;;;;5053329;28;20045;-64
2023/07/11 01:13:42;;;;;;;8.65;3.25;;;22.80;62.20;;;;;;5069723;28;20051;-64
2023/07/11 01:16:08;;;;;;;7.97;3.28;;;22.70;62.20;;;;;;5071367;28;20038;-64
2023/07/11 01:18:34;;;;;;;5.57;2.67;;;22.70;62.30;;;;;;5035905;28;20028;-64
2023/07/11 01:21:04;;;;;;;6.90;2.92;;;22.70;62.30;;;;;;5053477;28;20327;-64
2023/07/11 01:23:32;;;;;;;6.60;2.88;;;22.70;62.40;;;;;;5069760;28;20047;-64
2023/07/11 01:26:01;;;;;;;7.22;2.72;;;22.70;62.40;;;;;;5068841;28;20028;-64
2023/07/11 01:28:27;;;;;;;6.65;2.97;;;22.70;62.40;;;;;;5052989;28;20032;-64
2023/07/11 01:30:54;;;;;;;6.43;2.70;;;22.70;62.40;;;;;;5052335;28;20058;-64
2023/07/11 01:33:20;;;;;;;6.82;2.67;;;22.60;62.20;;;;;;5070962;28;20394;-64
2023/07/11 01:35:45;;;;;;;7.55;2.80;;;22.70;62.30;;;;;;5051160;28;20029;-64
2023/07/11 01:38:11;;;;;;;8.10;3.15;;;22.60;62.30;;;;;;5052268;28;20365;-64
2023/07/11 01:40:37;;;;;;;7.93;3.53;;;22.60;62.30;;;;;;5052950;28;20146;-64
2023/07/11 01:43:03;;;;;;;8.13;3.05;;;22.60;62.30;;;;;;5051814;28;20032;-64
2023/07/11 01:45:28;;;;;;;5.55;2.47;;;22.60;62.30;;;;;;5069249;28;20430;-64
2023/07/11 01:47:54;;;;;;;6.15;3.13;;;22.60;62.20;;;;;;5052832;28;20021;-64
2023/07/11 01:50:20;;;;;;;8.80;3.03;;;22.60;62.30;;;;;;5052640;28;20021;-64
2023/07/11 01:52:45;;;;;;;6.88;3.00;;;22.60;62.40;;;;;;5069229;28;20467;-64
2023/07/11 01:55:11;;;;;;;7.15;2.97;;;22.50;62.50;;;;;;5052088;28;20090;-64
2023/07/11 01:57:37;;;;;;;8.45;3.22;;;22.50;62.50;;;;;;5051651;28;20036;-64
2023/07/11 02:00:03;;;;;;;7.18;2.85;;;22.50;62.60;;;;;;5049632;28;20030;-64
2023/07/11 02:02:29;;;;;;;6.22;2.75;;;22.50;62.60;;;;;;5069399;28;20036;-64
2023/07/11 02:04:55;;;;;;;7.80;3.20;;;22.50;62.60;;;;;;5050894;28;20028;-64
2023/07/11 02:07:20;;;;;;;7.22;3.03;;;22.40;62.70;;;;;;5052806;28;20370;-64
2023/07/11 02:09:46;;;;;;;6.40;3.08;;;22.40;62.60;;;;;;5067408;28;20119;-64
2023/07/11 02:12:14;;;;;;;8.48;3.58;;;22.40;62.70;;;;;;5051335;28;20299;-64
2023/07/11 02:14:40;;;;;;;7.72;3.28;;;22.40;62.70;;;;;;5034301;28;20024;-64
2023/07/11 02:17:08;;;;;;;6.75;2.95;;;22.40;62.80;;;;;;5069772;28;20028;-64
2023/07/11 02:19:34;;;;;;;6.75;3.10;;;22.40;62.90;;;;;;5067175;28;20093;-64
2023/07/11 02:22:01;;;;;;;7.18;2.92;;;22.40;62.90;;;;;;5052492;28;20123;-64
2023/07/11 02:24:26;;;;;;;7.20;3.22;;;22.30;62.90;;;;;;5051047;28;20437;-64
2023/07/11 02:26:52;;;;;;;7.82;3.13;;;22.30;63.00;;;;;;5068317;28;20036;-64
2023/07/11 02:29:19;;;;;;;8.82;3.30;;;22.30;63.00;;;;;;5068593;28;20100;-64
2023/07/11 02:31:45;;;;;;;7.85;3.10;;;22.30;63.20;;;;;;5068410;28;20032;-64
2023/07/11 02:34:10;;;;;;;6.95;2.92;;;22.30;63.20;;;;;;5052938;28;20012;-64
2023/07/11 02:36:36;;;;;;;9.57;3.05;;;22.20;63.20;;;;;;5068359;28;20349;-64
2023/07/11 02:39:02;;;;;;;5.70;2.80;;;22.20;63.30;;;;;;5067819;28;20115;-64
2023/07/11 02:41:28;;;;;;;6.47;2.78;;;22.20;63.40;;;;;;5068100;28;20060;-64
2023/07/11 02:43:54;;;;;;;8.43;3.05;;;22.20;63.50;;;;;;5068065;28;20017;-64
2023/07/11 02:46:20;;;;;;;7.30;3.30;;;22.10;63.50;;;;;;5066144;28;20025;-64
2023/07/11 02:48:45;;;;;;;6.20;2.63;;;22.10;63.50;;;;;;5068029;28;20441;-64
2023/07/11 02:51:11;;;;;;;7.82;3.30;;;22.10;63.60;;;;;;5067098;28;20032;-64
2023/07/11 02:53:37;;;;;;;7.18;3.10;;;22.10;63.70;;;;;;5068558;28;20071;-64
2023/07/11 02:56:04;;;;;;;7.68;3.38;;;22.00;63.80;;;;;;5067619;28;20044;-64
2023/07/11 02:58:30;;;;;;;6.57;2.95;;;22.00;63.80;;;;;;5068139;28;20055;-64
2023/07/11 03:00:57;;;;;;;6.80;3.17;;;22.00;63.90;;;;;;5067641;28;20139;-64
2023/07/11 03:03:23;;;;;;;7.50;3.05;;;22.00;64.00;;;;;;5066240;28;20028;-64
2023/07/11 03:05:50;;;;;;;8.52;3.08;;;22.00;64.10;;;;;;5068887;28;20093;-64
2023/07/11 03:08:17;;;;;;;7.20;3.15;;;21.90;64.00;;;;;;5051759;28;20048;-64
2023/07/11 03:10:44;;;;;;;6.00;2.75;;;21.90;64.10;;;;;;5068112;28;20109;-64
2023/07/11 03:13:10;;;;;;;8.88;3.22;;;21.90;64.00;;;;;;5067079;28;20396;-64
2023/07/11 03:15:37;;;;;;;6.43;2.75;;;21.90;64.00;;;;;;5049716;28;20036;-64
2023/07/11 03:18:03;;;;;;;6.22;2.80;;;21.90;63.90;;;;;;5069213;28;20021;-64
2023/07/11 03:20:29;;;;;;;6.85;2.78;;;21.90;63.90;;;;;;5067908;28;20036;-64
2023/07/11 03:22:55;;;;;;;7.72;2.80;;;21.90;63.90;;;;;;5066657;28;20036;-64
2023/07/11 03:25:21;;;;;;;8.07;3.08;;;21.90;63.90;;;;;;5065452;28;20040;-64
2023/07/11 03:27:47;;;;;;;7.20;3.17;;;21.90;63.90;;;;;;5050286;28;20020;-64
2023/07/11 03:30:13;;;;;;;7.38;3.00;;;21.90;63.70;;;;;;5052230;28;20035;-64
2023/07/11 03:32:39;;;;;;;6.82;2.75;;;21.90;63.60;;;;;;5068375;28;20722;-64
2023/07/11 03:35:05;;;;;;;8.05;2.88;;;21.90;63.50;;;;;;5067713;28;20582;-64
2023/07/11 03:37:31;;;;;;;8.18;2.78;;;21.90;63.40;;;;;;5050996;28;20024;-64
2023/07/11 03:39:56;;;;;;;5.93;2.78;;;21.90;63.30;;;;;;5068726;28;20028;-64
2023/07/11 03:42:22;;;;;;;10.45;2.88;;;21.90;63.30;;;;;;5066462;28;20028;-64
2023/07/11 03:44:48;;;;;;;6.47;2.75;;;21.90;63.30;;;;;;5068595;28;20033;-64
2023/07/11 03:47:14;;;;;;;5.70;2.40;;;22.00;63.40;;;;;;5066692;28;20029;-64
2023/07/11 03:49:39;;;;;;;7.43;2.65;;;21.90;63.20;;;;;;5068564;28;20150;-64
2023/07/11 03:52:05;;;;;;;7.00;2.63;;;21.90;63.10;;;;;;5050742;28;20051;-64
2023/07/11 03:54:31;;;;;;;7.07;3.35;;;22.00;63.20;;;;;;5067185;28;20025;-64
2023/07/11 03:56:57;;;;;;;6.05;2.63;;;22.00;63.20;;;;;;5066613;28;20318;-64
2023/07/11 03:59:23;;;;;;;9.23;3.22;;;22.00;63.20;;;;;;5067360;28;20037;-64
2023/07/11 04:01:48;;;;;;;6.57;2.50;;;22.00;63.20;;;;;;5067560;28;20039;-64
2023/07/11 04:04:14;;;;;;;9.48;3.53;;;22.00;63.00;;;;;;5068372;28;20047;-64
2023/07/11 04:06:41;;;;;;;6.63;2.67;;;22.00;62.90;;;;;;5068021;28;20071;-64
2023/07/11 04:09:07;;;;;;;6.05;2.80;;;22.00;62.80;;;;;;5067667;28;20378;-64
2023/07/11 04:11:32;;;;;;;8.48;2.65;;;22.00;62.70;;;;;;5067994;28;20079;-64
2023/07/11 04:13:58;;;;;;;7.75;2.67;;;22.00;62.60;;;;;;5069163;28;20425;-64
2023/07/11 04:16:24;;;;;;;6.78;2.78;;;22.00;62.60;;;;;;5068454;28;20438;-64
2023/07/11 04:18:50;;;;;;;7.18;3.13;;;22.10;62.30;;;;;;5066829;28;20473;-64
2023/07/11 04:21:16;;;;;;;8.02;2.65;;;22.10;62.20;;;;;;5047083;28;20035;-65
2023/07/11 04:23:43;;;;;;;8.02;2.97;;;22.10;62.10;;;;;;5065738;28;20331;-64
2023/07/11 04:26:09;;;;;;;9.60;2.80;;;22.10;62.10;;;;;;5047453;28;20102;-64
2023/07/11 04:28:34;;;;;;;9.18;3.10;;;22.10;62.10;;;;;;5048976;28;20028;-63
2023/07/11 04:31:00;;;;;;;7.47;3.20;;;22.10;62.00;;;;;;5066325;28;20103;-63
2023/07/11 04:33:26;;;;;;;7.30;3.03;;;22.10;62.10;;;;;;5064628;28;20048;-64
2023/07/11 04:35:52;;;;;;;7.72;2.80;;;22.10;62.30;;;;;;5069826;28;20067;-64
2023/07/11 04:38:18;;;;;;;6.90;3.13;;;22.10;62.40;;;;;;5069226;28;20024;-64
2023/07/11 04:40:45;;;;;;;6.85;3.05;;;22.10;62.50;;;;;;5069593;28;20467;-64
2023/07/11 04:43:11;;;;;;;9.85;2.97;;;22.10;62.60;;;;;;5069707;28;20063;-64
2023/07/11 04:45:36;;;;;;;7.38;3.13;;;22.10;62.50;;;;;;5070313;28;20064;-64
2023/07/11 04:48:03;;;;;;;6.45;2.55;;;22.10;62.40;;;;;;5069583;28;20028;-64
2023/07/11 04:50:29;;;;;;;6.88;3.22;;;22.10;62.40;;;;;;5048825;28;20028;-65
2023/07/11 04:52:54;;;;;;;6.30;3.10;;;22.10;62.20;;;;;;5051293;28;20032;-65
2023/07/11 04:55:20;;;;;;;6.45;3.00;;;22.20;62.20;;;;;;5052221;28;20028;-66
2023/07/11 04:57:46;;;;;;;6.45;2.67;;;22.20;62.10;;;;;;5052276;28;20037;-65
2023/07/11 05:00:12;;;;;;;6.50;3.00;;;22.20;62.10;;;;;;5072130;28;20033;-68
2023/07/11 05:02:38;;;;;;;5.32;2.63;;;22.20;62.10;;;;;;5074171;28;20086;-65
2023/07/11 05:05:04;;;;;;;6.30;2.90;;;22.20;62.00;;;;;;5074049;28;20036;-65
2023/07/11 05:07:30;;;;;;;8.48;3.08;;;22.30;61.80;;;;;;5074188;28;20047;-63
2023/07/11 05:09:55;;;;;;;7.30;3.00;;;22.30;61.70;;;;;;5056710;28;20346;-63
2023/07/11 05:12:21;;;;;;;6.47;3.00;;;22.40;61.70;;;;;;5075727;28;20044;-63
2023/07/11 05:14:47;;;;;;;6.93;3.03;;;22.40;61.60;;;;;;5057164;28;20111;-63
2023/07/11 05:17:13;;;;;;;8.85;3.20;;;22.40;61.60;;;;;;5058082;28;20029;-63
2023/07/11 05:19:38;;;;;;;6.35;2.67;;;22.40;61.50;;;;;;5075909;28;20063;-63
2023/07/11 05:22:04;;;;;;;8.35;3.00;;;22.60;61.60;;;;;;5076309;28;20032;-63
2023/07/11 05:24:30;;;;;;;6.22;2.88;;;22.90;61.00;;;;;;5075932;28;20344;-63
2023/07/11 05:26:56;;;;;;;10.60;3.30;;;23.20;60.30;;;;;;5057631;28;20032;-63
2023/07/11 05:29:23;;;;;;;5.93;2.70;;;23.20;60.30;;;;;;5057562;28;20341;-62
2023/07/11 05:31:48;;;;;;;6.70;2.97;;;23.20;60.40;;;;;;5075954;28;20184;-63
2023/07/11 05:34:14;;;;;;;6.63;2.78;;;23.20;60.30;;;;;;5072606;28;20536;-63
2023/07/11 05:36:40;;;;;;;7.63;2.75;;;23.30;60.30;;;;;;5068250;28;20028;-63
2023/07/11 05:39:15;;;;;;;6.50;3.22;;;23.40;60.30;;;;;;5068695;28;20086;-63
2023/07/11 05:41:49;;;;;;;6.00;2.40;;;23.40;60.00;;;;;;5068851;28;20029;-63
2023/07/11 05:44:15;;;;;;;6.72;2.95;;;23.50;59.80;;;;;;5036701;28;20029;-63
2023/07/11 05:46:41;;;;;;;5.90;2.72;;;23.50;59.70;;;;;;5061050;28;20108;-63
2023/07/11 05:49:07;;;;;;;6.40;2.63;;;23.60;59.90;;;;;;5069719;28;20032;-63
2023/07/11 05:51:34;;;;;;;9.45;2.67;;;23.60;60.00;;;;;;5071151;28;20036;-63
2023/07/11 05:54:00;;;;;;;10.65;3.58;;;23.60;60.00;;;;;;5068977;28;20334;-63
2023/07/11 05:56:26;;;;;;;9.23;2.85;;;23.70;60.40;;;;;;5069164;28;20025;-64
2023/07/11 05:58:53;;;;;;;7.03;3.03;;;23.80;60.30;;;;;;5070621;28;20413;-64
2023/07/11 06:01:23;;;;;;;7.47;3.08;;;23.90;60.00;;;;;;5066482;28;20056;-64
2023/07/11 06:03:50;;;;;;;6.15;2.83;;;24.00;59.60;;;;;;5068135;28;20171;-63
2023/07/11 06:06:17;;;;;;;6.57;2.50;;;24.00;59.30;;;;;;5060925;28;20032;-64
2023/07/11 06:08:42;;;;;;;6.75;2.85;;;24.10;59.00;;;;;;5069633;28;20410;-64
2023/07/11 06:11:09;;;;;;;7.43;2.80;;;24.20;58.80;;;;;;5069389;28;20043;-65
2023/07/11 06:13:38;;;;;;;8.40;3.20;;;24.30;58.50;;;;;;5051917;28;20077;-64
2023/07/11 06:16:16;;;;;;;6.38;2.58;;;24.40;58.20;;;;;;5066404;28;20017;-65
2023/07/11 06:18:43;;;;;;;7.38;2.78;;;24.50;58.30;;;;;;5050780;28;20033;-65
2023/07/11 06:21:11;;;;;;;6.95;2.53;;;24.50;58.20;;;;;;5069339;28;20342;-64
2023/07/11 06:23:37;;;;;;;5.97;2.50;;;24.70;58.10;;;;;;5068293;28;20357;-64
2023/07/11 06:26:03;;;;;;;7.20;2.92;;;24.70;57.90;;;;;;5071563;28;20032;-64
2023/07/11 06:28:30;;;;;;;9.77;3.38;;;24.80;57.60;;;;;;5050838;28;21218;-64
2023/07/11 06:30:58;;;;;;;7.43;2.88;;;24.90;57.60;;;;;;5069436;28;20036;-64
2023/07/11 06:33:25;;;;;;;7.40;3.03;;;25.00;57.50;;;;;;5069248;28;20029;-64
2023/07/11 06:35:51;;;;;;;5.82;2.78;;;25.10;57.10;;;;;;5070642;28;20036;-64
2023/07/11 06:38:18;;;;;;;7.93;2.95;;;25.20;56.80;;;;;;5069935;28;20032;-64
2023/07/11 06:40:52;;;;;;;6.63;2.53;;;25.30;56.90;;;;;;5068073;28;20429;-63
2023/07/11 06:43:19;;;;;;;6.45;2.45;;;25.40;57.00;;;;;;5050845;28;20035;-63
2023/07/11 06:45:46;;;;;;;6.45;2.30;;;25.50;56.60;;;;;;5071445;28;20050;-63
2023/07/11 06:48:14;;;;;;;6.65;2.10;;;25.70;56.10;;;;;;5056492;28;20029;-63
2023/07/11 06:50:40;;;;;;;6.20;2.38;;;25.80;55.40;;;;;;5063611;28;20053;-64
2023/07/11 06:53:06;;;;;;;5.10;2.22;;;25.90;54.80;;;;;;5052208;28;20056;-64
2023/07/11 06:55:31;;;;;;;7.13;2.22;;;26.00;54.50;;;;;;5047894;28;20472;-64
2023/07/11 06:57:57;;;;;;;5.47;2.15;;;26.20;54.00;;;;;;5068257;28;20028;-64
2023/07/11 07:00:24;;;;;;;6.03;2.60;;;26.30;53.50;;;;;;5074370;28;20036;-64
2023/07/11 07:02:50;;;;;;;7.20;2.38;;;26.40;53.30;;;;;;5055445;28;20437;-64
2023/07/11 07:05:16;;;;;;;7.72;2.88;;;26.50;53.00;;;;;;5073591;28;20032;-64
2023/07/11 07:07:41;;;;;;;6.53;2.42;;;26.60;52.70;;;;;;5073844;28;20024;-64
2023/07/11 07:10:08;;;;;;;5.70;2.50;;;26.80;52.80;;;;;;5056241;28;20032;-64
2023/07/11 07:12:33;;;;;;;6.47;2.10;;;26.90;52.50;;;;;;5073546;28;20060;-64
2023/07/11 07:14:59;;;;;;;6.75;2.55;;;27.00;52.40;;;;;;5072637;28;20048;-64
2023/07/11 07:17:25;;;;;;;6.57;2.60;;;27.20;52.10;;;;;;5074220;28;20093;-64
2023/07/11 07:19:52;;;;;;;5.07;2.13;;;27.40;51.90;;;;;;5074168;28;20031;-64
2023/07/11 07:22:17;;;;;;;8.63;3.22;;;27.50;51.40;;;;;;5074140;28;20421;-64
2023/07/11 07:24:44;;;;;;;5.75;2.40;;;27.50;51.10;;;;;;5054680;28;20060;-64
2023/07/11 07:27:11;;;;;;;6.50;2.40;;;27.70;51.10;;;;;;5056171;28;20093;-64
2023/07/11 07:29:37;;;;;;;6.65;2.92;;;27.80;50.70;;;;;;5056141;28;20362;-64
2023/07/11 07:32:03;;;;;;;7.15;2.17;;;27.90;50.40;;;;;;5056770;28;20032;-64
2023/07/11 07:34:29;;;;;;;8.55;3.00;;;28.00;50.20;;;;;;5072680;28;20128;-64
2023/07/11 07:36:55;;;;;;;5.45;2.33;;;28.20;50.30;;;;;;5073822;28;20047;-64
2023/07/11 07:39:20;;;;;;;6.70;2.67;;;28.30;50.20;;;;;;5073936;28;20041;-64
2023/07/11 07:41:46;;;;;;;6.30;2.60;;;28.40;49.90;;;;;;5073196;28;20331;-64
2023/07/11 07:44:13;;;;;;;8.73;2.97;;;28.60;49.60;;;;;;5039283;28;20025;-64
2023/07/11 07:46:39;;;;;;;6.30;2.67;;;28.70;49.40;;;;;;5068053;28;20124;-64
2023/07/11 07:49:04;;;;;;;5.97;2.20;;;28.90;49.20;;;;;;5064923;28;20111;-64
2023/07/11 07:51:30;;;;;;;6.97;2.33;;;29.00;48.80;;;;;;5058854;28;20044;-64
2023/07/11 07:53:56;;;;;;;5.65;2.20;;;29.10;48.60;;;;;;5040822;28;20029;-63
2023/07/11 07:56:23;;;;;;;7.28;2.55;;;29.20;48.30;;;;;;5073597;28;20375;-64
2023/07/11 07:58:50;;;;;;;8.38;2.85;;;29.30;48.10;;;;;;5072078;28;20024;-64
2023/07/11 08:01:18;;;;;;;6.50;2.78;;;29.40;47.90;;;;;;5073526;28;20038;-64
2023/07/11 08:03:44;;;;;;;7.03;2.75;;;29.50;47.60;;;;;;5045088;28;20135;-64
2023/07/11 08:06:11;;;;;;;9.02;2.90;;;29.50;47.40;;;;;;5073046;28;20039;-64
2023/07/11 08:08:37;;;;;;;6.15;2.17;;;29.60;47.30;;;;;;5054321;28;20032;-63
2023/07/11 08:11:06;;;;;;;7.28;1.77;;;29.70;47.20;;;;;;5068334;28;20082;-64
2023/07/11 08:13:34;;;;;;;7.80;2.80;;;29.80;46.90;;;;;;5036928;28;20028;-63
2023/07/11 08:16:01;;;;;;;7.95;2.60;;;30.00;46.70;;;;;;5065102;28;20406;-63
2023/07/11 08:18:28;;;;;;;7.68;2.25;;;30.00;46.50;;;;;;5067423;28;20492;-64
2023/07/11 08:20:54;;;;;;;4.55;1.80;;;30.10;45.80;;;;;;5068181;28;20039;-64
2023/07/11 08:23:20;;;;;;;5.10;2.17;;;30.20;45.70;;;;;;5068726;28;20361;-64
2023/07/11 08:25:51;;;;;;;6.30;2.05;;;30.30;45.50;;;;;;5070914;28;20079;-64
2023/07/11 08:28:17;;;;;;;6.05;2.03;;;30.40;45.00;;;;;;5053283;28;20036;-64
2023/07/11 08:30:43;;;;;;;6.30;1.95;;;30.50;44.80;;;;;;5065582;28;20334;-64
2023/07/11 08:33:08;;;;;;;6.13;2.13;;;30.50;44.70;;;;;;5066681;28;20040;-64
2023/07/11 08:35:34;;;;;;;8.75;2.30;;;30.60;44.60;;;;;;5054160;28;20029;-64
2023/07/11 08:38:02;;;;;;;5.25;2.28;;;30.70;44.30;;;;;;5070898;28;20315;-64
2023/07/11 08:40:32;;;;;;;6.20;2.53;;;30.70;44.20;;;;;;5036368;28;20408;-64
2023/07/11 08:43:03;;;;;;;6.35;2.45;;;30.80;44.20;;;;;;5071091;28;20054;-64
2023/07/11 08:45:42;;;;;;;6.07;2.40;;;30.90;43.90;;;;;;5052126;28;20075;-64
2023/07/11 08:48:24;;;;;;;5.20;1.80;;;31.00;43.30;;;;;;5069852;28;20039;-64
2023/07/11 08:51:01;;;;;;;5.70;2.00;;;31.00;43.40;;;;;;5068232;28;20142;-64
2023/07/11 08:53:33;;;;;;;5.43;1.85;;;31.00;43.30;;;;;;5070383;28;20025;-64
2023/07/11 08:56:28;;;;;;;5.63;1.67;;;31.10;43.20;;;;;;5068361;28;20037;-64
2023/07/11 08:59:00;;;;;;;5.47;2.10;;;31.20;43.00;;;;;;5056106;28;20437;-64
2023/07/11 09:01:50;;;;;;;6.47;2.00;;;31.30;42.70;;;;;;5069621;28;20384;-63
2023/07/11 09:04:20;;;;;;;6.93;1.67;;;31.40;42.70;;;;;;5053419;28;20371;-64
2023/07/11 09:07:01;;;;;;;5.70;1.90;;;31.50;42.70;;;;;;5071627;28;20120;-64
2023/07/11 09:09:26;;;;;;;6.15;1.80;;;31.70;42.40;;;;;;5070088;28;20557;-64
2023/07/11 09:12:21;;;;;;;6.05;1.80;;;31.70;42.30;;;;;;5070095;28;20124;-64
2023/07/11 09:15:02;;;;;;;4.65;1.77;;;31.70;41.90;;;;;;5068165;28;20413;-64
2023/07/11 09:17:44;;;;;;;4.57;1.73;;;31.70;42.00;;;;;;5070263;28;20409;-64
2023/07/11 09:20:29;;;;;;;4.15;1.42;;;31.70;41.90;;;;;;5070814;28;20024;-64
2023/07/11 09:23:09;;;;;;;4.70;1.77;;;31.90;41.80;;;;;;5052578;28;20032;-64
2023/07/11 09:25:42;;;;;;;5.93;1.80;;;32.00;41.80;;;;;;5053219;28;20036;-64
2023/07/11 09:28:21;;;;;;;5.05;1.88;;;32.10;41.80;;;;;;5069687;28;20016;-65
2023/07/11 09:30:53;;;;;;;6.53;1.90;;;32.00;41.80;;;;;;5052409;28;20041;-64
2023/07/11 09:33:40;;;;;;;4.60;1.80;;;31.90;41.90;;;;;;5068524;28;20464;-64
2023/07/11 09:36:30;;;;;;;7.22;2.10;;;31.70;42.40;;;;;;5070722;28;20143;-64
2023/07/11 09:38:58;;;;;;;4.40;1.55;;;31.30;42.20;;;;;;5045982;28;20021;-64
2023/07/11 09:41:37;;;;;;;7.63;1.75;;;31.00;42.70;;;;;;5053127;28;20521;-64
2023/07/11 09:44:02;;;;;;;4.90;1.77;;;30.80;42.80;;;;;;5054106;28;20040;-64
2023/07/11 09:46:28;;;;;;;6.85;1.80;;;30.80;43.10;;;;;;5052618;28;20039;-64
2023/07/11 09:48:57;;;;;;;6.03;1.98;;;30.90;43.10;;;;;;5070975;28;20028;-65
2023/07/11 09:51:36;;;;;;;5.43;1.85;;;31.10;42.90;;;;;;5071456;28;20024;-64
2023/07/11 09:54:15;;;;;;;4.93;1.95;;;31.20;43.00;;;;;;5070859;28;20029;-65
2023/07/11 09:56:46;;;;;;;5.60;1.88;;;31.10;42.70;;;;;;5051889;28;20041;-65
2023/07/11 09:59:13;;;;;;;4.85;1.67;;;31.00;42.80;;;;;;5067889;28;20107;-65
2023/07/11 10:01:39;;;;;;;5.43;1.70;;;30.80;42.80;;;;;;5071566;28;20043;-64
2023/07/11 10:04:17;;;;;;;6.55;2.13;;;30.70;43.20;;;;;;5067881;28;20028;-64
2023/07/11 10:06:57;;;;;;;4.70;1.45;;;30.60;43.30;;;;;;5069713;28;20029;-64
2023/07/11 10:09:24;;;;;;;5.50;1.83;;;30.70;43.20;;;;;;5065271;28;20033;-66
2023/07/11 10:12:11;;;;;;;4.72;1.70;;;30.80;43.30;;;;;;5073812;28;20452;-65
2023/07/11 10:14:42;;;;;;;6.80;2.22;;;30.80;43.40;;;;;;5069095;28;20074;-64
2023/07/11 10:17:31;;;;;;;3.85;1.83;;;30.80;43.30;;;;;;5068150;28;20059;-64
2023/07/11 10:20:00;;;;;;;4.93;2.17;;;30.80;43.40;;;;;;5067880;28;20025;-64
2023/07/11 10:22:29;;;;;;;4.97;1.90;;;30.80;43.70;;;;;;5068145;28;20441;-65
2023/07/11 10:25:02;;;;;;;8.27;2.33;;;30.80;43.50;;;;;;5069405;28;20043;-65
2023/07/11 10:27:33;;;;;;;4.35;1.95;;;30.90;43.40;;;;;;5068388;28;20027;-65
2023/07/11 10:30:00;;;;;;;6.30;1.92;;;31.10;43.10;;;;;;5068736;28;20012;-65
2023/07/11 10:32:36;;;;;;;4.32;1.67;;;31.30;43.00;;;;;;5068051;28;20117;-65
2023/07/11 10:35:08;;;;;;;4.57;1.55;;;31.50;42.80;;;;;;5067772;28;20054;-65
2023/07/11 10:37:49;;;;;;;5.68;2.08;;;31.70;42.70;;;;;;5068936;28;20052;-65
2023/07/11 10:40:28;;;;;;;4.65;1.60;;;31.90;42.20;;;;;;5052889;28;20028;-65
2023/07/11 10:42:54;;;;;;;4.55;1.75;;;32.00;41.90;;;;;;5068719;28;21441;-65
2023/07/11 10:45:29;;;;;;;5.70;1.90;;;32.00;41.80;;;;;;5045922;28;20032;-65
2023/07/11 10:48:01;;;;;;;5.20;1.88;;;31.80;41.20;;;;;;5067849;28;20110;-65
2023/07/11 10:50:57;;;;;;;4.70;1.95;;;31.80;41.10;;;;;;5067240;28;20165;-64
2023/07/11 10:53:43;;;;;;;6.60;2.33;;;31.80;41.30;;;;;;5054878;28;20513;-64
2023/07/11 10:56:26;;;;;;;4.57;1.90;;;31.80;41.50;;;;;;5067970;28;20380;-65
2023/07/11 10:58:54;;;;;;;4.82;1.50;;;31.80;41.80;;;;;;5050311;28;20414;-64
2023/07/11 11:01:34;;;;;;;5.38;1.80;;;31.70;42.00;;;;;;5068830;28;20028;-64
2023/07/11 11:04:14;;;;;;;6.05;2.00;;;31.70;42.10;;;;;;5067355;28;20032;-64
2023/07/11 11:07:01;;;;;;;5.63;2.10;;;31.70;41.80;;;;;;5065419;28;20047;-64
2023/07/11 11:09:43;;;;;;;6.18;2.33;;;31.60;41.60;;;;;;5066834;28;20033;-64
2023/07/11 11:12:23;;;;;;;7.05;2.25;;;31.40;41.80;;;;;;5070719;28;20048;-64
2023/07/11 11:15:17;;;;;;;6.57;2.15;;;31.30;42.10;;;;;;5054399;28;20031;-64
2023/07/11 11:17:54;;;;;;;7.88;2.10;;;31.20;42.40;;;;;;5072002;28;20021;-64
2023/07/11 11:20:31;;;;;;;5.63;2.17;;;31.40;42.40;;;;;;5039244;28;20028;-64
2023/07/11 11:23:25;;;;;;;5.47;1.92;;;31.60;42.30;;;;;;5073576;28;20154;-64
2023/07/11 11:26:06;;;;;;;7.90;2.10;;;31.60;42.00;;;;;;5072234;28;20037;-64
2023/07/11 11:28:36;;;;;;;;;;;31.70;42.10;;;;;;5070905;28;20056;-64
2023/07/11 11:31:25;;;;;;;6.63;2.15;;;31.80;42.30;;;;;;5054405;28;20249;-64
2023/07/11 11:34:06;;;;;;;5.70;2.10;;;31.70;42.00;;;;;;5073670;28;20134;-64
2023/07/11 11:36:56;;;;;;;6.63;2.22;;;31.70;42.40;;;;;;5046594;28;20476;-64
2023/07/11 11:39:47;;;;;;;5.60;1.98;;;31.60;42.10;;;;;;5054393;28;20360;-64
2023/07/11 11:42:21;;;;;;;7.53;2.53;;;31.50;42.10;;;;;;5074194;28;20442;-64
2023/07/11 11:44:52;;;;;;;6.35;2.30;;;31.50;42.00;;;;;;5076497;28;20056;-64
2023/07/11 11:47:20;;;;;;;6.43;2.40;;;31.30;42.10;;;;;;5077893;28;20025;-64
2023/07/11 11:49:47;;;;;;;7.80;2.00;;;31.20;42.10;;;;;;5070663;28;20063;-64
2023/07/11 11:52:14;;;;;;;5.47;1.92;;;31.10;42.50;;;;;;5059558;28;20077;-64
2023/07/11 11:54:46;;;;;;;5.55;2.10;;;31.00;42.80;;;;;;5059483;28;20039;-64
2023/07/11 11:57:44;;;;;;;5.65;2.03;;;31.10;42.80;;;;;;5059505;28;20032;-64
2023/07/11 12:00:29;;;;;;;7.30;2.22;;;31.00;42.70;;;;;;5062830;28;20028;-69
2023/07/11 12:02:55;;;;;;;5.55;1.80;;;31.00;42.70;;;;;;5045211;28;20035;-64
2023/07/11 12:05:22;;;;;;;3.95;1.70;;;31.10;43.00;;;;;;5077493;28;20123;-66
2023/07/11 12:08:25;;;;;;;5.47;2.17;;;31.10;43.20;;;;;;5054174;28;20322;-69
2023/07/11 12:11:06;;;;;;;4.00;1.75;;;31.10;43.30;;;;;;5070358;28;20055;-69
2023/07/11 12:13:34;;;;;;;5.22;2.30;;;31.00;43.20;;;;;;5074015;28;20036;-68
2023/07/11 12:16:28;;;;;;;5.07;1.90;;;31.00;43.10;;;;;;5076464;28;20031;-69
2023/07/11 12:18:58;;;;;;;6.65;2.17;;;30.90;43.20;;;;;;5057966;28;20079;-68
2023/07/11 12:21:39;;;;;;;5.85;2.00;;;30.90;43.30;;;;;;5075025;28;20056;-69
2023/07/11 12:24:40;;;;;;;6.82;2.28;;;30.80;43.50;;;;;;5076900;28;20024;-68
2023/07/11 12:27:28;;;;;;;4.55;1.90;;;30.70;43.30;;;;;;5076289;28;20033;-68
2023/07/11 12:29:55;;;;;;;5.20;2.05;;;30.80;43.50;;;;;;5012130;28;20526;-69
2023/07/11 12:32:32;;;;;;;5.00;2.33;;;30.70;43.50;;;;;;5073042;28;20016;-69
2023/07/11 12:35:04;;;;;;;5.18;2.03;;;30.80;43.60;;;;;;5074661;28;20067;-69
2023/07/11 12:38:05;;;;;;;8.20;2.55;;;30.80;43.50;;;;;;5070100;28;20400;-68
2023/07/11 12:40:53;;;;;;;5.18;1.80;;;30.80;43.70;;;;;;5067769;28;20040;-65
2023/07/11 12:43:21;;;;;;;7.10;2.17;;;30.70;43.70;;;;;;5067753;28;20055;-68
2023/07/11 12:45:59;;;;;;;5.07;2.00;;;30.70;43.90;;;;;;5069750;28;20041;-68
2023/07/11 12:48:28;;;;;;;6.65;2.08;;;30.60;44.10;;;;;;5069866;28;20032;-66
2023/07/11 12:50:57;;;;;;;5.60;2.30;;;30.60;44.10;;;;;;5069348;28;20063;-67
2023/07/11 12:53:23;;;;;;;6.10;2.22;;;30.70;44.10;;;;;;5052323;28;20456;-68
2023/07/11 12:55:52;;;;;;;6.72;2.05;;;30.80;44.20;;;;;;5037001;28;20115;-70
2023/07/11 12:58:22;;;;;;;8.18;2.28;;;30.80;44.20;;;;;;5048542;28;20034;-68
2023/07/11 13:00:49;;;;;;;4.30;1.80;;;30.90;44.10;;;;;;5074372;28;20028;-68
2023/07/11 13:03:32;;;;;;;6.80;2.08;;;31.00;44.20;;;;;;5069657;28;20051;-65